Time;durP1;ratioP1;P1;durP2;ratioP2;P2;SDS_P1;SDS_P2;PMS_P1;PMS_P2;Temp;Humidity;BMP_temperature;BMP_pressure;BME280_temperature;BME280_humidity;BME280_pressure;Samples;Min_cycle;Max_cycle;Signal;HPM_P1;HPM_P2
2024/02/26 00:00:38;;;;;;;6.13;3.30;;;7.10;15.50;;;;;;6271570;22;39209;-78
2024/02/26 00:03:04;;;;;;;3.63;2.87;;;7.00;15.80;;;;;;6238073;22;37459;-79
2024/02/26 00:05:31;;;;;;;5.00;2.93;;;7.00;14.30;;;;;;6265665;22;38970;-78
2024/02/26 00:08:00;;;;;;;5.20;3.13;;;7.00;17.40;;;;;;6261890;22;38797;-80
2024/02/26 00:10:26;;;;;;;6.43;3.37;;;7.00;18.50;;;;;;6264049;22;37616;-79
2024/02/26 00:12:52;;;;;;;6.70;3.43;;;7.00;17.40;;;;;;6263461;22;36299;-78
2024/02/26 00:15:18;;;;;;;6.33;3.33;;;7.00;16.90;;;;;;6236028;22;37902;-79
2024/02/26 00:17:45;;;;;;;3.93;3.20;;;7.00;19.30;;;;;;6273122;22;39337;-80
2024/02/26 00:20:13;;;;;;;5.37;3.13;;;7.00;22.70;;;;;;6273262;22;38992;-80
2024/02/26 00:22:39;;;;;;;5.53;3.70;;;7.00;21.60;;;;;;6248998;22;38266;-80
2024/02/26 00:25:06;;;;;;;6.50;3.27;;;7.00;19.60;;;;;;6247976;22;38950;-79
2024/02/26 00:27:32;;;;;;;4.23;3.20;;;7.00;20.70;;;;;;6245452;22;37582;-79
2024/02/26 00:29:59;;;;;;;4.93;3.60;;;7.00;20.40;;;;;;6256651;22;37394;-79
2024/02/26 00:32:25;;;;;;;6.43;3.30;;;7.10;16.20;;;;;;6229702;22;38207;-79
2024/02/26 00:34:51;;;;;;;5.00;3.43;;;7.10;15.90;;;;;;6240509;22;37330;-79
2024/02/26 00:37:17;;;;;;;5.83;3.70;;;7.10;18.00;;;;;;6262836;22;40303;-79
2024/02/26 00:39:44;;;;;;;4.67;2.90;;;7.10;12.50;;;;;;6263006;22;36628;-81
2024/02/26 00:42:12;;;;;;;4.10;3.23;;;7.10;12.00;;;;;;6238928;22;36645;-78
2024/02/26 00:44:40;;;;;;;4.50;3.53;;;7.10;5.90;;;;;;6267146;22;38619;-81
2024/02/26 00:47:17;;;;;;;7.63;5.53;;;7.20;6.70;;;;;;6235449;22;40497;-78
2024/02/26 00:49:49;;;;;;;4.30;3.13;;;7.20;2.90;;;;;;6244303;22;37006;-80
2024/02/26 00:52:16;;;;;;;5.13;3.35;;;7.20;1.00;;;;;;6270459;22;37400;-79
2024/02/26 00:54:42;;;;;;;6.17;3.30;;;7.20;1.00;;;;;;6266318;22;39229;-79
2024/02/26 00:57:09;;;;;;;4.67;3.00;;;7.20;1.00;;;;;;6267022;22;38505;-79
2024/02/26 00:59:35;;;;;;;3.87;2.73;;;7.20;1.00;;;;;;6272078;22;37393;-79
2024/02/26 01:02:02;;;;;;;5.63;3.20;;;7.30;1.00;;;;;;6271225;22;37270;-80
2024/02/26 01:04:32;;;;;;;4.40;2.93;;;7.20;1.00;;;;;;6235540;22;47026;-79
2024/02/26 01:06:58;;;;;;;4.97;3.30;;;7.30;1.00;;;;;;6241151;22;39991;-79
2024/02/26 01:09:29;;;;;;;3.30;2.80;;;7.20;1.00;;;;;;6270330;22;37475;-79
2024/02/26 01:11:55;;;;;;;5.60;2.97;;;7.30;1.00;;;;;;6245155;22;36942;-79
2024/02/26 01:14:21;;;;;;;6.83;3.67;;;7.30;1.00;;;;;;6238013;22;38779;-78
2024/02/26 01:16:51;;;;;;;3.40;3.10;;;7.30;1.00;;;;;;6263963;22;39206;-78
2024/02/26 01:19:18;;;;;;;3.40;2.70;;;7.20;1.00;;;;;;6272185;22;37439;-79
2024/02/26 01:21:44;;;;;;;6.63;2.87;;;7.20;1.00;;;;;;6275537;22;37726;-79
2024/02/26 01:24:13;;;;;;;4.23;2.80;;;7.20;1.00;;;;;;6272958;22;39296;-79
2024/02/26 01:26:41;;;;;;;4.50;2.83;;;7.20;1.00;;;;;;6277378;22;39936;-79
2024/02/26 01:29:07;;;;;;;4.93;2.93;;;7.20;1.00;;;;;;6275860;22;39309;-78
2024/02/26 01:31:33;;;;;;;4.50;3.10;;;7.20;1.00;;;;;;6278865;22;38115;-79
2024/02/26 01:34:01;;;;;;;7.53;3.20;;;7.20;1.00;;;;;;6252469;22;39190;-80
2024/02/26 01:36:27;;;;;;;7.07;3.30;;;7.20;1.00;;;;;;6247733;22;48476;-77
2024/02/26 01:38:54;;;;;;;4.63;2.90;;;7.20;1.00;;;;;;6241435;22;38003;-78
2024/02/26 01:41:20;;;;;;;4.03;3.30;;;7.20;1.00;;;;;;6243539;22;38084;-79
2024/02/26 01:43:46;;;;;;;7.47;3.20;;;7.20;1.00;;;;;;6266784;22;39509;-79
2024/02/26 01:46:14;;;;;;;6.03;3.43;;;7.20;1.00;;;;;;6265081;22;38669;-78
2024/02/26 01:48:42;;;;;;;3.83;3.07;;;7.20;1.00;;;;;;6245197;22;37822;-79
2024/02/26 01:51:10;;;;;;;5.37;3.27;;;7.20;1.00;;;;;;6268126;22;37636;-79
2024/02/26 01:53:37;;;;;;;4.47;3.17;;;7.20;1.00;;;;;;6238320;22;38532;-78
2024/02/26 01:56:03;;;;;;;5.10;3.20;;;7.10;1.00;;;;;;6237247;22;37373;-79
2024/02/26 01:58:31;;;;;;;6.43;3.23;;;7.10;1.00;;;;;;6236442;22;37281;-79
2024/02/26 02:03:33;;;;;;;6.03;3.37;;;7.00;4.80;;;;;;6272998;22;20502;-77
2024/02/26 02:05:59;;;;;;;6.03;3.60;;;7.00;3.90;;;;;;6278715;22;38907;-77
2024/02/26 02:08:27;;;;;;;7.00;3.80;;;7.00;5.20;;;;;;6278181;22;38219;-77
2024/02/26 02:10:53;;;;;;;6.73;4.23;;;7.00;9.00;;;;;;6279095;22;36257;-77
2024/02/26 02:13:19;;;;;;;5.47;3.70;;;6.90;11.80;;;;;;6279474;22;38661;-77
2024/02/26 02:15:45;;;;;;;5.33;3.93;;;6.90;11.20;;;;;;6280974;22;38192;-77
2024/02/26 02:18:12;;;;;;;4.20;3.67;;;6.90;15.10;;;;;;6279204;22;37400;-77
2024/02/26 02:20:38;;;;;;;4.00;3.60;;;6.90;14.40;;;;;;6277793;22;35808;-77
2024/02/26 02:23:04;;;;;;;7.73;4.30;;;6.90;14.10;;;;;;6278564;22;37657;-77
2024/02/26 02:25:30;;;;;;;6.67;4.20;;;6.90;15.40;;;;;;6280355;22;38848;-77
2024/02/26 02:27:57;;;;;;;5.03;4.10;;;6.90;20.70;;;;;;6277724;22;36917;-77
2024/02/26 02:30:27;;;;;;;5.60;4.33;;;6.90;20.60;;;;;;6279377;22;37326;-77
2024/02/26 02:32:54;;;;;;;7.10;4.87;;;6.80;19.10;;;;;;6277650;22;37766;-77
2024/02/26 02:35:20;;;;;;;5.10;4.30;;;6.80;18.30;;;;;;6278180;22;39610;-77
2024/02/26 02:37:47;;;;;;;4.97;4.47;;;6.80;17.50;;;;;;6278094;22;37900;-77
2024/02/26 02:40:14;;;;;;;8.73;5.03;;;6.80;17.40;;;;;;6276045;22;37030;-77
2024/02/26 02:42:40;;;;;;;6.10;4.67;;;6.80;19.00;;;;;;6276182;22;40532;-76
2024/02/26 02:45:06;;;;;;;8.57;4.67;;;6.80;19.10;;;;;;6275204;22;39174;-78
2024/02/26 02:47:37;;;;;;;5.70;4.70;;;6.80;20.20;;;;;;6274950;22;40041;-77
2024/02/26 02:50:04;;;;;;;5.60;4.87;;;6.80;22.60;;;;;;6276105;22;38150;-77
2024/02/26 02:52:30;;;;;;;6.27;4.83;;;6.80;24.80;;;;;;6272895;22;39173;-77
2024/02/26 02:54:56;;;;;;;6.30;4.93;;;6.70;19.70;;;;;;6276181;22;38939;-77
2024/02/26 02:57:22;;;;;;;6.57;4.60;;;6.70;23.80;;;;;;6272395;22;38410;-77
2024/02/26 02:59:48;;;;;;;5.53;4.80;;;6.70;27.60;;;;;;6274571;22;37089;-77
2024/02/26 03:02:14;;;;;;;7.37;5.47;;;6.70;30.10;;;;;;6274778;22;39067;-77
2024/02/26 03:04:40;;;;;;;6.33;5.60;;;6.70;34.50;;;;;;6274194;22;38275;-77
2024/02/26 03:07:07;;;;;;;6.07;5.33;;;6.70;35.00;;;;;;6276375;22;37433;-77
2024/02/26 03:09:33;;;;;;;6.10;5.30;;;6.70;34.70;;;;;;6273218;22;37558;-77
2024/02/26 03:11:59;;;;;;;7.17;5.83;;;6.70;38.70;;;;;;6273816;22;40230;-77
2024/02/26 03:14:25;;;;;;;6.47;5.20;;;6.70;40.30;;;;;;6274860;22;38287;-77
2024/02/26 03:16:55;;;;;;;7.80;6.00;;;6.70;45.70;;;;;;6273902;22;38363;-77
2024/02/26 03:19:21;;;;;;;6.67;5.57;;;6.70;50.80;;;;;;6273111;22;37936;-76
2024/02/26 03:21:47;;;;;;;6.13;5.53;;;6.60;46.80;;;;;;6276807;22;39467;-77
2024/02/26 03:24:14;;;;;;;10.13;6.00;;;6.60;48.70;;;;;;6272770;22;37570;-77
2024/02/26 03:26:40;;;;;;;9.20;6.73;;;6.60;53.10;;;;;;6273587;22;37916;-76
2024/02/26 03:29:06;;;;;;;8.37;6.30;;;6.60;58.50;;;;;;6272646;22;35902;-77
2024/02/26 03:31:32;;;;;;;6.70;6.00;;;6.60;62.00;;;;;;6273323;22;39499;-77
2024/02/26 03:33:58;;;;;;;11.00;6.53;;;6.50;66.00;;;;;;6273010;22;39557;-76
2024/02/26 03:36:25;;;;;;;8.00;6.60;;;6.50;74.20;;;;;;6272346;22;38792;-76
2024/02/26 03:38:51;;;;;;;8.10;7.13;;;6.50;81.10;;;;;;6272836;22;36244;-76
2024/02/26 03:41:17;;;;;;;8.80;7.20;;;6.40;84.60;;;;;;6273303;22;37954;-76
2024/02/26 03:43:45;;;;;;;8.50;7.33;;;6.40;87.50;;;;;;6276675;22;39390;-76
2024/02/26 03:46:13;;;;;;;10.23;7.97;;;6.40;91.10;;;;;;6271291;22;38708;-76
2024/02/26 03:48:42;;;;;;;8.63;7.20;;;6.40;93.50;;;;;;6275346;22;37145;-77
2024/02/26 03:51:10;;;;;;;11.17;7.87;;;6.30;97.60;;;;;;6235984;22;38739;-77
2024/02/26 03:53:36;;;;;;;11.87;8.00;;;6.30;97.70;;;;;;6273076;22;38269;-77
2024/02/26 03:56:06;;;;;;;13.17;7.87;;;6.30;97.60;;;;;;6275251;22;38396;-77
2024/02/26 03:58:33;;;;;;;9.03;7.07;;;6.30;99.90;;;;;;6262238;22;47992;-76
2024/02/26 04:01:00;;;;;;;9.33;7.07;;;6.20;99.90;;;;;;6280344;22;39888;-77
2024/02/26 04:03:26;;;;;;;10.03;7.67;;;6.20;96.30;;;;;;6280250;22;39598;-77
2024/02/26 04:05:52;;;;;;;9.80;7.17;;;6.20;98.30;;;;;;6280045;22;38124;-77
2024/02/26 04:08:18;;;;;;;10.40;7.57;;;6.20;98.30;;;;;;6279038;22;37886;-76
2024/02/26 04:10:44;;;;;;;8.10;7.07;;;6.20;99.90;;;;;;6281482;22;40003;-77
2024/02/26 04:13:10;;;;;;;8.20;6.67;;;6.20;99.90;;;;;;6279653;22;38520;-77
2024/02/26 04:15:36;;;;;;;9.03;7.70;;;6.20;99.90;;;;;;6281987;22;37360;-76
2024/02/26 04:18:03;;;;;;;11.37;7.70;;;6.20;99.90;;;;;;6277345;22;37999;-77
2024/02/26 04:20:29;;;;;;;9.13;6.90;;;6.20;99.90;;;;;;6277670;22;37396;-77
2024/02/26 04:22:55;;;;;;;9.17;6.67;;;6.20;99.90;;;;;;6279492;22;39105;-77
2024/02/26 04:25:21;;;;;;;9.23;7.40;;;6.20;99.90;;;;;;6277461;22;39199;-77
2024/02/26 04:27:47;;;;;;;10.03;7.03;;;6.20;95.60;;;;;;6279698;22;36984;-77
2024/02/26 04:30:13;;;;;;;10.00;7.57;;;6.30;93.90;;;;;;6283528;22;40384;-77
2024/02/26 04:32:40;;;;;;;9.83;7.40;;;6.30;93.60;;;;;;6283989;22;37960;-77
2024/02/26 04:35:06;;;;;;;9.37;7.23;;;6.30;92.60;;;;;;6282722;22;38578;-76
2024/02/26 04:37:32;;;;;;;8.70;6.67;;;6.30;93.20;;;;;;6279100;22;38269;-76
2024/02/26 04:39:59;;;;;;;9.27;7.30;;;6.30;94.10;;;;;;6277232;22;39816;-76
2024/02/26 04:42:26;;;;;;;10.83;7.53;;;6.30;90.40;;;;;;6275453;22;39440;-76
2024/02/26 04:44:53;;;;;;;9.97;7.03;;;6.30;94.40;;;;;;6276226;22;38002;-76
2024/02/26 04:47:19;;;;;;;10.13;8.10;;;6.30;95.20;;;;;;6276078;22;37637;-77
2024/02/26 04:49:45;;;;;;;9.07;7.70;;;6.30;93.50;;;;;;6279674;22;37626;-76
2024/02/26 04:52:11;;;;;;;11.60;7.80;;;6.30;95.10;;;;;;6280654;22;39468;-77
2024/02/26 04:54:38;;;;;;;10.80;7.90;;;6.30;93.70;;;;;;6281759;22;38231;-76
2024/02/26 04:57:04;;;;;;;12.80;9.27;;;6.30;94.30;;;;;;6283992;22;38156;-76
2024/02/26 04:59:30;;;;;;;11.20;8.90;;;6.30;97.40;;;;;;6280958;22;38131;-76
2024/02/26 05:01:57;;;;;;;11.20;8.63;;;6.30;99.90;;;;;;6278813;22;39735;-77
2024/02/26 05:04:23;;;;;;;13.03;8.40;;;6.30;98.20;;;;;;6279156;22;39119;-76
2024/02/26 05:06:49;;;;;;;12.03;8.93;;;6.30;92.50;;;;;;6279140;22;37715;-76
2024/02/26 05:09:18;;;;;;;11.60;8.60;;;6.30;93.90;;;;;;6278028;22;38201;-76
2024/02/26 05:11:44;;;;;;;11.80;8.23;;;6.30;90.50;;;;;;6281889;22;38897;-76
2024/02/26 05:14:10;;;;;;;13.37;8.80;;;6.30;83.00;;;;;;6274730;22;36673;-77
2024/02/26 05:16:37;;;;;;;10.93;8.13;;;6.30;74.40;;;;;;6279093;22;36865;-76
2024/02/26 05:19:03;;;;;;;12.50;8.37;;;6.40;72.40;;;;;;6279798;22;39848;-76
2024/02/26 05:21:29;;;;;;;10.60;7.93;;;6.40;64.50;;;;;;6279049;22;38198;-76
2024/02/26 05:23:56;;;;;;;12.30;8.60;;;6.40;61.50;;;;;;6278583;22;37477;-76
2024/02/26 05:26:23;;;;;;;11.53;9.03;;;6.40;60.60;;;;;;6275027;22;38013;-77
2024/02/26 05:28:50;;;;;;;13.03;8.40;;;6.40;62.60;;;;;;6276618;22;38761;-77
2024/02/26 05:31:16;;;;;;;11.47;9.00;;;6.50;55.90;;;;;;6274762;22;38475;-76
2024/02/26 05:33:43;;;;;;;12.47;8.13;;;6.50;42.70;;;;;;6273821;22;36597;-76
2024/02/26 05:36:09;;;;;;;13.70;9.80;;;6.50;31.70;;;;;;6273289;22;37847;-76
2024/02/26 05:38:35;;;;;;;12.60;9.57;;;6.50;30.10;;;;;;6271673;22;39156;-76
2024/02/26 05:41:02;;;;;;;11.47;8.43;;;6.60;31.70;;;;;;6272156;22;39355;-76
2024/02/26 05:43:28;;;;;;;10.83;8.97;;;6.60;33.20;;;;;;6274357;22;37996;-76
2024/02/26 05:45:54;;;;;;;11.63;8.53;;;6.60;30.60;;;;;;6271705;22;38491;-77
2024/02/26 05:48:22;;;;;;;12.17;8.93;;;6.60;23.90;;;;;;6271637;22;38118;-76
2024/02/26 05:50:48;;;;;;;10.27;8.50;;;6.60;23.30;;;;;;6272491;22;38675;-76
2024/02/26 05:53:15;;;;;;;12.73;9.80;;;6.60;23.10;;;;;;6274002;22;38957;-76
2024/02/26 05:55:41;;;;;;;12.97;9.23;;;6.60;26.50;;;;;;6274902;22;37607;-77
2024/02/26 05:58:07;;;;;;;11.43;9.20;;;6.60;25.20;;;;;;6273413;22;39590;-76
2024/02/26 06:00:33;;;;;;;12.30;9.93;;;6.60;23.00;;;;;;6275803;22;38554;-76
2024/02/26 06:02:59;;;;;;;13.30;9.73;;;6.60;26.60;;;;;;6272167;22;38582;-76
2024/02/26 06:05:26;;;;;;;13.37;9.83;;;6.60;30.40;;;;;;6274005;22;36638;-76
2024/02/26 06:07:52;;;;;;;15.63;9.90;;;6.60;31.80;;;;;;6274919;22;40209;-76
2024/02/26 06:10:21;;;;;;;12.97;9.80;;;6.50;29.00;;;;;;6272632;22;38732;-76
2024/02/26 06:12:47;;;;;;;11.37;9.57;;;6.50;37.50;;;;;;6276371;22;38519;-77
2024/02/26 06:15:14;;;;;;;13.00;9.77;;;6.50;42.70;;;;;;6274874;22;37128;-75
2024/02/26 06:17:40;;;;;;;15.27;9.20;;;6.50;41.10;;;;;;6276725;22;37827;-77
2024/02/26 06:20:11;;;;;;;11.57;8.90;;;6.50;39.40;;;;;;6272034;22;38969;-77
2024/02/26 06:22:38;;;;;;;15.83;10.47;;;6.50;45.30;;;;;;6273249;22;38212;-76
2024/02/26 06:25:04;;;;;;;13.40;10.17;;;6.50;51.10;;;;;;6273341;22;38692;-77
2024/02/26 06:27:30;;;;;;;12.03;9.60;;;6.40;56.20;;;;;;6272290;22;47333;-76
2024/02/26 06:29:56;;;;;;;13.47;9.00;;;6.40;59.80;;;;;;6273849;22;38149;-77
2024/02/26 06:32:23;;;;;;;14.43;10.80;;;6.40;61.80;;;;;;6271720;22;38477;-77
2024/02/26 06:34:49;;;;;;;14.13;10.57;;;6.40;68.80;;;;;;6272661;22;37968;-76
2024/02/26 06:37:15;;;;;;;13.40;9.63;;;6.30;79.80;;;;;;6272222;22;38579;-76
2024/02/26 06:39:42;;;;;;;14.90;10.13;;;6.30;82.80;;;;;;6275066;22;38580;-77
2024/02/26 06:42:08;;;;;;;15.43;11.40;;;6.30;86.80;;;;;;6270892;22;39426;-76
2024/02/26 06:44:34;;;;;;;16.07;11.33;;;6.20;91.50;;;;;;6274342;22;38187;-75
2024/02/26 06:47:01;;;;;;;14.87;10.73;;;6.20;91.70;;;;;;6274430;22;38999;-75
2024/02/26 06:49:28;;;;;;;17.20;11.80;;;6.20;94.40;;;;;;6273432;22;47373;-76
2024/02/26 06:51:54;;;;;;;16.73;11.97;;;6.20;96.40;;;;;;6274603;22;37473;-75
2024/02/26 06:54:20;;;;;;;19.57;12.67;;;6.10;96.20;;;;;;6272603;22;39199;-76
2024/02/26 06:56:46;;;;;;;18.00;12.40;;;6.10;98.80;;;;;;6274744;22;40176;-76
2024/02/26 06:59:12;;;;;;;19.30;12.73;;;6.10;98.00;;;;;;6271777;22;39074;-76
2024/02/26 07:01:41;;;;;;;20.33;13.57;;;6.10;99.90;;;;;;6272506;22;38520;-76
2024/02/26 07:04:07;;;;;;;21.90;13.60;;;6.10;99.90;;;;;;6277215;22;37988;-76
2024/02/26 07:06:33;;;;;;;20.87;13.37;;;6.10;99.90;;;;;;6278807;22;38703;-75
2024/02/26 07:09:00;;;;;;;22.40;14.77;;;6.00;99.90;;;;;;6272658;22;37645;-75
2024/02/26 07:11:26;;;;;;;23.30;13.93;;;6.00;99.90;;;;;;6271576;22;38430;-76
2024/02/26 07:13:52;;;;;;;21.33;14.07;;;6.00;99.90;;;;;;6273233;22;37849;-76
2024/02/26 07:16:18;;;;;;;27.83;17.47;;;5.90;99.90;;;;;;6274343;22;38918;-76
2024/02/26 07:18:44;;;;;;;26.67;16.07;;;6.00;99.90;;;;;;6271506;22;38566;-75
2024/02/26 07:21:12;;;;;;;28.70;17.90;;;6.00;99.90;;;;;;6274876;22;38946;-76
2024/02/26 07:23:38;;;;;;;28.87;16.70;;;5.90;99.90;;;;;;6273623;22;37623;-75
2024/02/26 07:26:04;;;;;;;27.00;17.57;;;6.00;99.90;;;;;;6269895;22;37689;-76
2024/02/26 07:28:30;;;;;;;30.43;18.40;;;5.90;99.90;;;;;;6271620;22;38964;-75
2024/02/26 07:30:57;;;;;;;30.93;19.37;;;6.00;99.90;;;;;;6274545;22;38391;-75
2024/02/26 07:33:23;;;;;;;30.97;20.00;;;6.00;99.90;;;;;;6273627;22;37138;-75
2024/02/26 07:35:49;;;;;;;31.80;19.37;;;6.00;99.90;;;;;;6280194;22;38687;-78
2024/02/26 07:38:15;;;;;;;34.07;20.93;;;6.00;99.90;;;;;;6275343;22;37192;-77
2024/02/26 07:40:41;;;;;;;33.97;20.93;;;5.90;99.90;;;;;;6281897;22;37906;-77
2024/02/26 07:43:07;;;;;;;35.03;20.83;;;6.00;99.90;;;;;;6276711;22;36336;-77
2024/02/26 07:45:35;;;;;;;34.40;21.33;;;5.90;99.90;;;;;;6278070;22;38928;-78
2024/02/26 07:48:01;;;;;;;33.77;21.60;;;5.90;99.90;;;;;;6275358;22;39912;-78
2024/02/26 07:50:27;;;;;;;38.70;22.30;;;5.90;99.90;;;;;;6261934;22;46561;-78
2024/02/26 07:52:53;;;;;;;40.53;24.03;;;5.90;99.90;;;;;;6274857;22;36302;-77
2024/02/26 07:55:20;;;;;;;40.33;24.50;;;5.90;99.90;;;;;;6276503;22;38328;-78
2024/02/26 07:57:46;;;;;;;37.33;23.77;;;6.00;99.90;;;;;;6274548;22;38429;-77
2024/02/26 08:00:16;;;;;;;36.37;24.30;;;5.90;99.90;;;;;;6275446;22;37603;-77
2024/02/26 08:02:43;;;;;;;39.73;25.87;;;5.90;99.90;;;;;;6271179;22;37987;-77
2024/02/26 08:05:10;;;;;;;42.37;25.43;;;5.90;99.90;;;;;;6272222;22;37770;-77
2024/02/26 08:07:36;;;;;;;39.33;26.77;;;5.90;99.90;;;;;;6275639;22;37993;-78
2024/02/26 08:10:04;;;;;;;37.53;24.73;;;5.90;99.90;;;;;;6276702;22;37869;-77
2024/02/26 08:12:30;;;;;;;38.67;26.33;;;5.90;99.90;;;;;;6270909;22;38533;-77
2024/02/26 08:14:56;;;;;;;34.90;24.80;;;5.90;99.90;;;;;;6275458;22;38598;-78
2024/02/26 08:17:22;;;;;;;35.47;24.43;;;5.90;99.90;;;;;;6274258;22;39808;-77
2024/02/26 08:19:48;;;;;;;34.63;24.93;;;5.80;99.90;;;;;;6273477;22;39369;-77
2024/02/26 08:22:17;;;;;;;35.80;24.40;;;5.80;99.90;;;;;;6271377;22;38092;-78
2024/02/26 08:24:43;;;;;;;36.50;25.40;;;5.80;99.90;;;;;;6274070;22;39557;-77
2024/02/26 08:27:09;;;;;;;35.53;24.93;;;5.80;99.90;;;;;;6270083;22;38501;-77
2024/02/26 08:29:35;;;;;;;34.63;24.03;;;5.80;99.90;;;;;;6272396;22;38903;-77
2024/02/26 08:32:02;;;;;;;34.97;24.00;;;5.80;99.90;;;;;;6269968;22;37715;-77
2024/02/26 08:34:28;;;;;;;31.97;23.33;;;5.80;99.90;;;;;;6272184;22;40432;-77
2024/02/26 08:36:54;;;;;;;30.03;21.63;;;5.80;99.90;;;;;;6270649;22;38560;-77
2024/02/26 08:39:20;;;;;;;32.47;21.70;;;5.90;99.90;;;;;;6272810;22;37726;-76
2024/02/26 08:41:46;;;;;;;31.40;21.67;;;5.80;99.90;;;;;;6277328;22;37331;-76
2024/02/26 08:44:12;;;;;;;29.77;21.10;;;5.80;99.90;;;;;;6274300;22;40119;-78
2024/02/26 08:46:38;;;;;;;27.93;21.77;;;5.80;99.90;;;;;;6275550;22;38657;-78
2024/02/26 08:49:05;;;;;;;29.13;21.40;;;5.90;99.90;;;;;;6276959;22;38973;-76
2024/02/26 08:51:31;;;;;;;28.10;19.83;;;5.80;99.90;;;;;;6275365;22;38167;-76
2024/02/26 08:53:57;;;;;;;27.50;18.70;;;5.80;99.90;;;;;;6278355;22;39617;-76
2024/02/26 08:56:23;;;;;;;28.73;20.07;;;5.80;99.90;;;;;;6274960;22;37930;-77
2024/02/26 08:58:53;;;;;;;27.80;20.90;;;5.80;99.90;;;;;;6278629;22;38426;-78
2024/02/26 09:01:19;;;;;;;27.33;19.33;;;5.80;99.90;;;;;;6275359;22;36359;-78
2024/02/26 09:03:46;;;;;;;24.53;18.87;;;5.70;99.90;;;;;;6274356;22;39321;-79
2024/02/26 09:06:15;;;;;;;23.47;18.60;;;5.80;99.90;;;;;;6275057;22;39904;-78
2024/02/26 09:08:41;;;;;;;28.97;19.77;;;5.80;99.90;;;;;;6276149;22;40052;-78
2024/02/26 09:11:07;;;;;;;27.30;18.50;;;5.80;99.90;;;;;;6277508;22;38731;-78
2024/02/26 09:13:33;;;;;;;26.77;17.77;;;5.70;99.90;;;;;;6275621;22;39445;-79
2024/02/26 09:16:00;;;;;;;25.50;17.33;;;5.70;99.90;;;;;;6273869;22;39359;-78
2024/02/26 09:18:28;;;;;;;24.67;17.37;;;5.70;99.90;;;;;;6272611;22;36842;-77
2024/02/26 09:20:54;;;;;;;22.73;17.03;;;5.70;99.90;;;;;;6273142;22;38999;-78
2024/02/26 09:23:21;;;;;;;22.50;16.17;;;5.70;99.90;;;;;;6272073;22;37934;-78
2024/02/26 09:25:47;;;;;;;22.40;15.67;;;5.70;99.90;;;;;;6271718;22;39036;-77
2024/02/26 09:28:15;;;;;;;21.17;15.33;;;5.70;99.90;;;;;;6272790;22;39376;-77
2024/02/26 09:30:41;;;;;;;20.30;15.30;;;5.70;99.90;;;;;;6272969;22;38844;-78
2024/02/26 09:33:07;;;;;;;18.17;13.10;;;5.70;99.90;;;;;;6273200;22;37364;-77
2024/02/26 09:35:34;;;;;;;20.40;13.73;;;5.70;99.90;;;;;;6276142;22;38510;-77
2024/02/26 09:38:03;;;;;;;19.40;13.17;;;5.70;99.90;;;;;;6278128;22;38599;-77
2024/02/26 09:40:29;;;;;;;19.97;14.13;;;5.80;99.90;;;;;;6276686;22;48507;-79
2024/02/26 09:43:01;;;;;;;17.83;12.47;;;5.80;99.90;;;;;;6275769;22;39755;-79
2024/02/26 09:45:31;;;;;;;18.73;11.95;;;5.80;99.90;;;;;;6275937;22;47008;-77
2024/02/26 09:47:57;;;;;;;16.47;11.13;;;5.80;99.90;;;;;;6276536;22;38259;-80
2024/02/26 09:50:24;;;;;;;20.67;11.57;;;5.90;99.90;;;;;;6274825;22;38715;-77
2024/02/26 09:52:51;;;;;;;15.00;11.43;;;5.80;99.90;;;;;;6274514;22;37783;-77
2024/02/26 09:55:18;;;;;;;16.17;10.80;;;5.80;99.90;;;;;;6275419;22;38324;-79
2024/02/26 09:57:46;;;;;;;15.70;11.83;;;5.90;99.90;;;;;;6273707;22;38020;-79
2024/02/26 10:00:20;;;;;;;17.70;10.40;;;5.80;99.90;;;;;;6274233;22;37996;-79
2024/02/26 10:02:47;;;;;;;13.03;9.97;;;5.80;99.90;;;;;;6272671;22;46936;-80
2024/02/26 10:05:21;;;;;;;13.53;9.97;;;5.80;99.90;;;;;;6273174;22;38436;-77
2024/02/26 10:07:47;;;;;;;15.33;9.37;;;5.80;99.90;;;;;;6274752;22;39638;-77
2024/02/26 10:10:15;;;;;;;14.07;9.57;;;5.80;99.90;;;;;;6273851;22;38252;-76
2024/02/26 10:12:41;;;;;;;15.93;9.97;;;5.80;99.90;;;;;;6271051;22;40546;-77
2024/02/26 10:15:08;;;;;;;13.60;9.70;;;5.80;99.90;;;;;;6276951;22;38715;-77
2024/02/26 10:17:35;;;;;;;12.97;9.70;;;5.80;99.90;;;;;;6276133;22;38869;-77
2024/02/26 10:20:13;;;;;;;13.50;9.77;;;5.80;99.90;;;;;;6276704;22;36049;-77
2024/02/26 10:22:39;;;;;;;11.17;8.70;;;5.80;99.90;;;;;;6280205;22;47063;-77
2024/02/26 10:25:05;;;;;;;15.40;9.97;;;5.80;99.90;;;;;;6279266;22;37024;-77
2024/02/26 10:27:33;;;;;;;13.80;8.63;;;5.80;99.90;;;;;;6278062;22;39728;-77
2024/02/26 10:30:03;;;;;;;14.03;9.50;;;5.80;99.90;;;;;;6279885;22;38604;-77
2024/02/26 10:32:30;;;;;;;14.77;9.17;;;5.80;99.90;;;;;;6279120;22;39199;-77
2024/02/26 10:34:56;;;;;;;12.13;8.67;;;5.80;99.90;;;;;;6280116;22;38192;-77
2024/02/26 10:37:23;;;;;;;12.53;8.30;;;5.80;99.90;;;;;;6273008;22;38366;-77
2024/02/26 10:39:49;;;;;;;14.63;9.37;;;5.80;99.90;;;;;;6272839;22;38790;-77
2024/02/26 10:42:17;;;;;;;13.17;8.33;;;5.80;99.90;;;;;;6275571;22;39026;-77
2024/02/26 10:44:44;;;;;;;13.53;9.33;;;5.80;99.90;;;;;;6273706;22;40079;-77
2024/02/26 10:47:11;;;;;;;11.13;8.27;;;5.80;99.90;;;;;;6275459;22;38633;-77
2024/02/26 10:49:37;;;;;;;12.43;8.67;;;5.90;99.90;;;;;;6274463;22;36096;-78
2024/02/26 10:52:06;;;;;;;14.93;8.53;;;5.90;99.90;;;;;;6271680;22;40774;-77
2024/02/26 10:54:33;;;;;;;14.57;8.07;;;6.00;99.90;;;;;;6276341;22;38023;-77
2024/02/26 10:57:01;;;;;;;11.90;7.33;;;6.00;99.90;;;;;;6273035;22;38585;-77
2024/02/26 10:59:27;;;;;;;11.50;7.43;;;6.00;99.90;;;;;;6272186;22;47507;-77
2024/02/26 11:01:55;;;;;;;11.43;7.83;;;6.00;99.90;;;;;;6272344;22;40024;-78
2024/02/26 11:04:22;;;;;;;12.13;8.40;;;6.10;99.90;;;;;;6275073;22;38311;-78
2024/02/26 11:06:49;;;;;;;12.80;7.63;;;6.00;99.90;;;;;;6272957;22;36755;-77
2024/02/26 11:09:17;;;;;;;11.13;7.87;;;6.10;99.90;;;;;;6270600;22;38697;-77
2024/02/26 11:11:44;;;;;;;10.07;7.53;;;6.10;99.90;;;;;;6272487;22;39651;-78
2024/02/26 11:14:13;;;;;;;13.17;9.00;;;6.20;99.90;;;;;;6272276;22;39757;-77
2024/02/26 11:16:40;;;;;;;11.37;7.13;;;6.10;99.90;;;;;;6274425;22;37997;-77
2024/02/26 11:19:10;;;;;;;12.27;8.20;;;6.10;99.90;;;;;;6272936;22;37122;-77
2024/02/26 11:21:43;;;;;;;12.67;8.57;;;6.20;99.90;;;;;;6273343;22;38740;-77
2024/02/26 11:24:15;;;;;;;12.23;7.88;;;6.20;99.90;;;;;;6270434;22;38135;-77
2024/02/26 11:26:50;;;;;;;12.07;7.88;;;6.20;99.90;;;;;;6275864;22;38025;-76
2024/02/26 11:29:21;;;;;;;12.60;8.13;;;6.20;99.90;;;;;;6273058;22;35706;-77
2024/02/26 11:31:47;;;;;;;10.23;7.37;;;6.20;99.90;;;;;;6274649;22;39163;-76
2024/02/26 11:34:13;;;;;;;8.40;6.80;;;6.20;99.90;;;;;;6274283;22;38924;-77
2024/02/26 11:36:40;;;;;;;9.27;7.30;;;6.20;99.90;;;;;;6277223;22;37715;-77
2024/02/26 11:39:06;;;;;;;11.53;7.70;;;6.20;99.90;;;;;;6272510;22;37968;-79
2024/02/26 11:41:32;;;;;;;9.63;7.37;;;6.20;99.90;;;;;;6275245;22;39786;-79
2024/02/26 11:44:04;;;;;;;12.70;8.27;;;6.20;99.90;;;;;;6274627;22;39673;-77
2024/02/26 11:46:32;;;;;;;11.47;8.23;;;6.20;99.90;;;;;;6275809;22;47676;-79
2024/02/26 11:49:00;;;;;;;12.50;8.50;;;6.20;99.90;;;;;;6276914;22;38732;-79
2024/02/26 11:51:28;;;;;;;11.83;7.93;;;6.30;99.90;;;;;;6276686;22;39647;-79
2024/02/26 11:53:57;;;;;;;11.57;8.30;;;6.20;99.90;;;;;;6275926;22;39829;-76
2024/02/26 11:56:24;;;;;;;10.13;7.87;;;6.10;99.90;;;;;;6276831;22;37440;-77
2024/02/26 11:58:57;;;;;;;12.43;9.00;;;6.20;99.90;;;;;;6275810;22;37651;-76
2024/02/26 12:01:48;;;;;;;14.23;8.50;;;6.20;99.90;;;;;;6276217;22;39252;-77
2024/02/26 12:04:35;;;;;;;10.83;8.40;;;6.20;99.90;;;;;;6274111;22;40397;-77
2024/02/26 12:07:03;;;;;;;15.93;8.67;;;6.30;99.90;;;;;;6273086;22;38309;-76
2024/02/26 12:09:34;;;;;;;10.87;7.70;;;6.20;99.90;;;;;;6277703;22;48783;-75
2024/02/26 12:12:07;;;;;;;13.50;9.13;;;6.20;99.90;;;;;;6261355;22;37756;-76
2024/02/26 12:14:37;;;;;;;9.20;8.00;;;6.20;99.90;;;;;;6278142;22;47139;-76
2024/02/26 12:17:06;;;;;;;9.97;7.60;;;6.20;99.90;;;;;;6280106;22;38734;-77
2024/02/26 12:19:36;;;;;;;10.83;7.60;;;6.20;99.90;;;;;;6275236;22;36110;-76
2024/02/26 12:22:02;;;;;;;10.73;7.77;;;6.30;99.90;;;;;;6274638;22;37592;-78
2024/02/26 12:24:29;;;;;;;11.80;7.90;;;6.30;99.90;;;;;;6279877;22;39180;-78
2024/02/26 12:26:55;;;;;;;13.30;6.93;;;6.30;99.90;;;;;;6275193;22;38136;-76
2024/02/26 12:29:22;;;;;;;11.60;8.00;;;6.30;99.90;;;;;;6275033;22;39303;-76
2024/02/26 12:31:48;;;;;;;9.37;7.47;;;6.30;99.90;;;;;;6276547;22;39688;-76
2024/02/26 12:34:16;;;;;;;9.43;7.20;;;6.20;99.90;;;;;;6274339;22;38720;-78
2024/02/26 12:36:42;;;;;;;11.33;6.77;;;6.30;99.90;;;;;;6275412;22;37579;-76
2024/02/26 12:39:09;;;;;;;9.03;6.93;;;6.40;99.90;;;;;;6274124;22;39155;-77
2024/02/26 12:41:37;;;;;;;9.70;6.27;;;6.40;99.90;;;;;;6274922;22;39539;-79
2024/02/26 12:44:04;;;;;;;8.53;6.37;;;6.40;99.90;;;;;;6269609;22;39934;-77
2024/02/26 12:46:30;;;;;;;7.23;5.80;;;6.30;99.90;;;;;;6269938;22;36912;-76
2024/02/26 12:48:58;;;;;;;11.00;6.33;;;6.30;99.90;;;;;;6270373;22;36148;-76